Industrial Edge — V2EL9 — position and weather

sailwx.info

Track history (hours):
 
Tides and Currents Weather Stations Pressure Air Temp Water Temp Dewpoint Dewpoint Depression Visibility Wind Speed Wind Dir Waves Ship Positions

Industrial Edge

Last reported at 2018-Jun-15 07:59 UTC. Time now 2018-Jun-22 15:12 UTC.
Position N 36°28' E 014°31'.

Length 139 m; draft 5.7 m.

Type: Cargo ship. MMSI: 305472000.

Date/timePositionNaut miles runAvg speedWind from/ knotsBaromVisibWave heightAir tempDewpointWater temp
2018-Jun-15 07:59N 36°28' E 014°31'713.6
2018-Jun-15 07:29N 36°30' E 014°23'612.0
2018-Jun-15 07:01N 36°32' E 014°17'612.1
2018-Jun-15 06:30N 36°33' E 014°09'612.6
2018-Jun-15 06:01N 36°35' E 014°02'66413.0
2018-Jun-13 02:57N 36°47' E 000°14'613.9
2018-Jun-13 02:30N 36°46' E 000°07'3913.4
2018-Jun-12 23:35N 36°36' W 000°40'113.7
2018-Jun-12 23:30N 36°36' W 000°42'22514.1
2018-Jun-12 07:27N 36°05' W 005°19'4 2.0
2018-Jun-12 05:17N 36°09' W 005°22'0 0.1
2018-Jun-12 05:00N 36°09' W 005°22'0 0.1
2018-Jun-12 04:30N 36°09' W 005°22'0 0.1
2018-Jun-12 03:58N 36°09' W 005°22'0 0.1
2018-Jun-12 03:27N 36°09' W 005°22'0 0.0
2018-Jun-12 03:00N 36°09' W 005°22'0 0.1
2018-Jun-12 02:26N 36°09' W 005°22'0 0.1
2018-Jun-12 02:00N 36°09' W 005°22'0 0.2
2018-Jun-12 01:30N 36°09' W 005°22'0 0.1
2018-Jun-12 00:54N 36°09' W 005°22'0 0.0
2018-Jun-12 00:26N 36°09' W 005°22'0 0.0
2018-Jun-11 23:50N 36°09' W 005°22'0 0.0
2018-Jun-11 23:26N 36°09' W 005°22'0 0.1
2018-Jun-11 22:51N 36°09' W 005°22'1 2.5
2018-Jun-11 22:30N 36°08' W 005°22'4 7.7
2018-Jun-11 22:00N 36°05' W 005°19'5 9.8
2018-Jun-11 21:30N 36°05' W 005°13'510.7
2018-Jun-11 21:00N 36°06' W 005°07'1 1.0
2018-Jun-11 20:24N 36°06' W 005°07'1 1.2
2018-Jun-11 19:58N 36°06' W 005°08'1 1.4
2018-Jun-11 19:30N 36°06' W 005°09'1 1.5
2018-Jun-11 19:00N 36°07' W 005°10'1 1.7
2018-Jun-11 18:30N 36°07' W 005°11'8 8.1
2018-Jun-11 17:33N 36°01' W 005°17'115.0
2018-Jun-11 17:30N 36°01' W 005°18'816.2
2018-Jun-11 17:00N 35°58' W 005°27'24912.0
2018-Jun-10 20:18N 38°05' W 009°55'1413.8
2018-Jun-10 19:16N 38°19' W 009°59'414.1
2018-Jun-10 18:58N 38°23' W 009°60'613.8
2018-Jun-10 18:30N 38°30' W 010°02'713.7
2018-Jun-10 18:00N 38°36' W 010°03'713.8
2018-Jun-10 17:31N 38°43' W 010°05'714.1
2018-Jun-10 17:01N 38°50' W 010°06'713.8
2018-Jun-10 16:31N 38°57' W 010°06'713.8
2018-Jun-10 16:00N 39°04' W 010°06'714.3
2018-Jun-10 15:30N 39°11' W 010°06'58213.3
2018-Jun-08 19:53N 48°28' W 006°09'2513.9
2018-Jun-08 18:05N 48°50' W 005°52'114.0
2018-Jun-08 18:00N 48°51' W 005°51'11013.6
2018-Jun-08 09:58N 49°46' W 003°25'714.5
2018-Jun-08 09:30N 49°49' W 003°17'814.7
2018-Jun-08 08:59N 49°53' W 003°06'715.0
2018-Jun-08 08:30N 49°56' W 002°56'815.2
2018-Jun-08 08:00N 49°59' W 002°45'2915.0
2018-Jun-08 06:05N 50°08' W 002°02'114.6
2018-Jun-08 06:00N 50°08' W 002°01'714.0
2018-Jun-08 05:31N 50°10' W 001°50'713.5
2018-Jun-08 05:01N 50°12' W 001°40'713.1
2018-Jun-08 04:31N 50°14' W 001°31'612.6
2018-Jun-08 04:00N 50°16' W 001°21'612.4
2018-Jun-08 03:31N 50°17' W 001°12'612.1
2018-Jun-08 03:00N 50°19' W 001°03'612.2
2018-Jun-08 02:31N 50°21' W 000°54'612.3
2018-Jun-08 02:00N 50°23' W 000°44'612.5
2018-Jun-08 01:31N 50°24' W 000°35'612.9
2018-Jun-08 01:00N 50°26' W 000°25'1413.8
2018-Jun-07 23:59N 50°30' W 000°04'714.3
2018-Jun-07 23:28N 50°32' E 000°07'714.6
2018-Jun-07 22:58N 50°34' E 000°18'714.7
2018-Jun-07 22:30N 50°36' E 000°29'714.7
2018-Jun-07 22:00N 50°39' E 000°39'714.5
2018-Jun-07 21:30N 50°43' E 000°49'714.2
2018-Jun-07 21:01N 50°47' E 000°57'2113.5
2018-Jun-07 19:26N 51°02' E 001°22'612.9
2018-Jun-07 18:57N 51°06' E 001°30'612.8
2018-Jun-07 18:30N 51°09' E 001°37'612.8
2018-Jun-07 18:00N 51°13' E 001°45'713.3
2018-Jun-07 17:30N 51°19' E 001°49'714.0
2018-Jun-07 17:01N 51°26' E 001°54'714.1
2018-Jun-07 16:30N 51°31' E 002°02'814.7
2018-Jun-07 15:56N 51°37' E 002°11'714.9
2018-Jun-07 15:29N 51°42' E 002°18'715.0
2018-Jun-07 15:01N 51°47' E 002°26'3015.0
2018-Jun-07 13:00N 52°10' E 002°57'814.5
2018-Jun-07 12:26N 52°17' E 003°05'614.2
2018-Jun-07 12:00N 52°22' E 003°10'713.8
2018-Jun-07 11:30N 52°28' E 003°17'713.5
2018-Jun-07 10:59N 52°34' E 003°23'613.1
2018-Jun-07 10:30N 52°38' E 003°30'713.0
2018-Jun-07 09:59N 52°43' E 003°38'612.8
2018-Jun-07 09:30N 52°48' E 003°45'612.6
2018-Jun-07 09:00N 52°53' E 003°51'712.8
2018-Jun-07 08:30N 52°58' E 003°58'613.0
2018-Jun-07 08:00N 53°02' E 004°06'713.6
2018-Jun-07 07:30N 53°06' E 004°16'714.2
2018-Jun-07 07:01N 53°10' E 004°25'714.2
2018-Jun-07 06:30N 53°16' E 004°30'814.7
2018-Jun-07 06:00N 53°23' E 004°34'714.7
2018-Jun-07 05:30N 53°30' E 004°37'714.5
2018-Jun-07 05:01N 53°37' E 004°40'714.2
2018-Jun-07 04:30N 53°44' E 004°45'714.2
2018-Jun-07 04:00N 53°51' E 004°49'714.0
2018-Jun-07 03:30N 53°57' E 004°53'913.9
2018-Jun-07 02:50N 54°06' E 004°59'23413.4
2018-Jun-06 09:25N 57°42' E 007°37'613.6
2018-Jun-06 08:59N 57°46' E 007°45'714.9
2018-Jun-06 08:29N 57°49' E 007°58'714.8
2018-Jun-06 07:59N 57°52' E 008°10'714.4
2018-Jun-06 07:30N 57°55' E 008°22'714.2
2018-Jun-06 07:00N 57°58' E 008°34'914.3
2018-Jun-06 06:22N 58°04' E 008°48'5014.0
2018-Jun-06 02:47N 58°40' E 009°54'414.1
2018-Jun-06 02:30N 58°43' E 009°59'714.2
2018-Jun-06 02:00N 58°48' E 010°09'714.2
2018-Jun-06 01:30N 58°53' E 010°19'714.0
2018-Jun-06 01:01N 58°58' E 010°29'612.6
2018-Jun-06 00:30N 59°03' E 010°34'4 8.8
2018-Jun-06 00:00N 59°08' E 010°35'611.3
2018-Jun-05 23:30N 59°13' E 010°36'611.8
2018-Jun-05 23:00N 59°19' E 010°34'611.8
2018-Jun-05 22:30N 59°25' E 010°32'611.6
2018-Jun-05 22:00N 59°30' E 010°26'5 9.9
2018-Jun-05 21:30N 59°35' E 010°25'4 6.8
2018-Jun-05 20:59N 59°39' E 010°25'611.6
2018-Jun-05 20:30N 59°43' E 010°18'2 4.2
2018-Jun-05 19:59N 59°44' E 010°14'0 0.0
2018-Jun-05 19:28N 59°44' E 010°14'0 0.0
2018-Jun-05 18:58N 59°44' E 010°14'0 0.0
2018-Jun-05 18:28N 59°44' E 010°14'0 0.0
2018-Jun-05 18:00N 59°44' E 010°14'0 0.0
2018-Jun-05 17:28N 59°44' E 010°14'0 0.0
2018-Jun-05 16:58N 59°44' E 010°14'0 0.0
2018-Jun-05 16:28N 59°44' E 010°14'0 0.0
2018-Jun-05 15:55N 59°44' E 010°14'0 0.0
2018-Jun-05 15:28N 59°44' E 010°14'0 0.0
2018-Jun-05 14:58N 59°44' E 010°14'0 0.0
2018-Jun-05 14:28N 59°44' E 010°14'0 0.0
2018-Jun-05 13:58N 59°44' E 010°14'0 0.0
2018-Jun-05 13:28N 59°44' E 010°14'0 0.0
2018-Jun-05 12:58N 59°44' E 010°14'0 0.0
2018-Jun-05 12:28N 59°44' E 010°14'0 0.0
2018-Jun-05 11:55N 59°44' E 010°14'0 0.0
2018-Jun-05 11:28N 59°44' E 010°14'0 0.0
2018-Jun-05 10:58N 59°44' E 010°14'0 0.0
2018-Jun-05 10:28N 59°44' E 010°14'0 0.0
2018-Jun-05 09:58N 59°44' E 010°14'0 0.0
2018-Jun-05 09:28N 59°44' E 010°14'0 0.0
2018-Jun-05 08:58N 59°44' E 010°14'0 0.0
2018-Jun-05 08:28N 59°44' E 010°14'  
Track history (hours):
 
Tides and Currents Weather Stations Pressure Air Temp Water Temp Dewpoint Dewpoint Depression Visibility Wind Speed Wind Dir Waves Ship Positions

Industrial Edge

Last reported at 2018-Jun-15 07:59 UTC. Time now 2018-Jun-22 15:12 UTC.
Position N 36°28' E 014°31'.

Length 139 m; draft 5.7 m.

Type: Cargo ship. MMSI: 305472000.

Date/timePositionNaut miles runAvg speedWind from/ knotsBaromVisibWave heightAir tempDewpointWater temp
2018-Jun-15 07:59N 36°28' E 014°31'713.6
2018-Jun-15 07:29N 36°30' E 014°23'612.0
2018-Jun-15 07:01N 36°32' E 014°17'612.1
2018-Jun-15 06:30N 36°33' E 014°09'612.6
2018-Jun-15 06:01N 36°35' E 014°02'66413.0
2018-Jun-13 02:57N 36°47' E 000°14'613.9
2018-Jun-13 02:30N 36°46' E 000°07'3913.4
2018-Jun-12 23:35N 36°36' W 000°40'113.7
2018-Jun-12 23:30N 36°36' W 000°42'22514.1
2018-Jun-12 07:27N 36°05' W 005°19'4 2.0
2018-Jun-12 05:17N 36°09' W 005°22'0 0.1
2018-Jun-12 05:00N 36°09' W 005°22'0 0.1
2018-Jun-12 04:30N 36°09' W 005°22'0 0.1
2018-Jun-12 03:58N 36°09' W 005°22'0 0.1
2018-Jun-12 03:27N 36°09' W 005°22'0 0.0
2018-Jun-12 03:00N 36°09' W 005°22'0 0.1
2018-Jun-12 02:26N 36°09' W 005°22'0 0.1
2018-Jun-12 02:00N 36°09' W 005°22'0 0.2
2018-Jun-12 01:30N 36°09' W 005°22'0 0.1
2018-Jun-12 00:54N 36°09' W 005°22'0 0.0
2018-Jun-12 00:26N 36°09' W 005°22'0 0.0
2018-Jun-11 23:50N 36°09' W 005°22'0 0.0
2018-Jun-11 23:26N 36°09' W 005°22'0 0.1
2018-Jun-11 22:51N 36°09' W 005°22'1 2.5
2018-Jun-11 22:30N 36°08' W 005°22'4 7.7
2018-Jun-11 22:00N 36°05' W 005°19'5 9.8
2018-Jun-11 21:30N 36°05' W 005°13'510.7
2018-Jun-11 21:00N 36°06' W 005°07'1 1.0
2018-Jun-11 20:24N 36°06' W 005°07'1 1.2
2018-Jun-11 19:58N 36°06' W 005°08'1 1.4
2018-Jun-11 19:30N 36°06' W 005°09'1 1.5
2018-Jun-11 19:00N 36°07' W 005°10'1 1.7
2018-Jun-11 18:30N 36°07' W 005°11'8 8.1
2018-Jun-11 17:33N 36°01' W 005°17'115.0
2018-Jun-11 17:30N 36°01' W 005°18'816.2
2018-Jun-11 17:00N 35°58' W 005°27'24912.0
2018-Jun-10 20:18N 38°05' W 009°55'1413.8
2018-Jun-10 19:16N 38°19' W 009°59'414.1
2018-Jun-10 18:58N 38°23' W 009°60'613.8
2018-Jun-10 18:30N 38°30' W 010°02'713.7
2018-Jun-10 18:00N 38°36' W 010°03'713.8
2018-Jun-10 17:31N 38°43' W 010°05'714.1
2018-Jun-10 17:01N 38°50' W 010°06'713.8
2018-Jun-10 16:31N 38°57' W 010°06'713.8
2018-Jun-10 16:00N 39°04' W 010°06'714.3
2018-Jun-10 15:30N 39°11' W 010°06'58213.3
2018-Jun-08 19:53N 48°28' W 006°09'2513.9
2018-Jun-08 18:05N 48°50' W 005°52'114.0
2018-Jun-08 18:00N 48°51' W 005°51'11013.6
2018-Jun-08 09:58N 49°46' W 003°25'714.5
2018-Jun-08 09:30N 49°49' W 003°17'814.7
2018-Jun-08 08:59N 49°53' W 003°06'715.0
2018-Jun-08 08:30N 49°56' W 002°56'815.2
2018-Jun-08 08:00N 49°59' W 002°45'2915.0
2018-Jun-08 06:05N 50°08' W 002°02'114.6
2018-Jun-08 06:00N 50°08' W 002°01'714.0
2018-Jun-08 05:31N 50°10' W 001°50'713.5
2018-Jun-08 05:01N 50°12' W 001°40'713.1
2018-Jun-08 04:31N 50°14' W 001°31'612.6
2018-Jun-08 04:00N 50°16' W 001°21'612.4
2018-Jun-08 03:31N 50°17' W 001°12'612.1
2018-Jun-08 03:00N 50°19' W 001°03'612.2
2018-Jun-08 02:31N 50°21' W 000°54'612.3
2018-Jun-08 02:00N 50°23' W 000°44'612.5
2018-Jun-08 01:31N 50°24' W 000°35'612.9
2018-Jun-08 01:00N 50°26' W 000°25'1413.8
2018-Jun-07 23:59N 50°30' W 000°04'714.3
2018-Jun-07 23:28N 50°32' E 000°07'714.6
2018-Jun-07 22:58N 50°34' E 000°18'714.7
2018-Jun-07 22:30N 50°36' E 000°29'714.7
2018-Jun-07 22:00N 50°39' E 000°39'714.5
2018-Jun-07 21:30N 50°43' E 000°49'714.2
2018-Jun-07 21:01N 50°47' E 000°57'2113.5
2018-Jun-07 19:26N 51°02' E 001°22'612.9
2018-Jun-07 18:57N 51°06' E 001°30'612.8
2018-Jun-07 18:30N 51°09' E 001°37'612.8
2018-Jun-07 18:00N 51°13' E 001°45'713.3
2018-Jun-07 17:30N 51°19' E 001°49'714.0
2018-Jun-07 17:01N 51°26' E 001°54'714.1
2018-Jun-07 16:30N 51°31' E 002°02'814.7
2018-Jun-07 15:56N 51°37' E 002°11'714.9
2018-Jun-07 15:29N 51°42' E 002°18'715.0
2018-Jun-07 15:01N 51°47' E 002°26'3015.0
2018-Jun-07 13:00N 52°10' E 002°57'814.5
2018-Jun-07 12:26N 52°17' E 003°05'614.2
2018-Jun-07 12:00N 52°22' E 003°10'713.8
2018-Jun-07 11:30N 52°28' E 003°17'713.5
2018-Jun-07 10:59N 52°34' E 003°23'613.1
2018-Jun-07 10:30N 52°38' E 003°30'713.0
2018-Jun-07 09:59N 52°43' E 003°38'612.8
2018-Jun-07 09:30N 52°48' E 003°45'612.6
2018-Jun-07 09:00N 52°53' E 003°51'712.8
2018-Jun-07 08:30N 52°58' E 003°58'613.0
2018-Jun-07 08:00N 53°02' E 004°06'713.6
2018-Jun-07 07:30N 53°06' E 004°16'714.2
2018-Jun-07 07:01N 53°10' E 004°25'714.2
2018-Jun-07 06:30N 53°16' E 004°30'814.7
2018-Jun-07 06:00N 53°23' E 004°34'714.7
2018-Jun-07 05:30N 53°30' E 004°37'714.5
2018-Jun-07 05:01N 53°37' E 004°40'714.2
2018-Jun-07 04:30N 53°44' E 004°45'714.2
2018-Jun-07 04:00N 53°51' E 004°49'714.0
2018-Jun-07 03:30N 53°57' E 004°53'913.9
2018-Jun-07 02:50N 54°06' E 004°59'23413.4
2018-Jun-06 09:25N 57°42' E 007°37'613.6
2018-Jun-06 08:59N 57°46' E 007°45'714.9
2018-Jun-06 08:29N 57°49' E 007°58'714.8
2018-Jun-06 07:59N 57°52' E 008°10'714.4
2018-Jun-06 07:30N 57°55' E 008°22'714.2
2018-Jun-06 07:00N 57°58' E 008°34'914.3
2018-Jun-06 06:22N 58°04' E 008°48'5014.0
2018-Jun-06 02:47N 58°40' E 009°54'414.1
2018-Jun-06 02:30N 58°43' E 009°59'714.2
2018-Jun-06 02:00N 58°48' E 010°09'714.2
2018-Jun-06 01:30N 58°53' E 010°19'714.0
2018-Jun-06 01:01N 58°58' E 010°29'612.6
2018-Jun-06 00:30N 59°03' E 010°34'4 8.8
2018-Jun-06 00:00N 59°08' E 010°35'611.3
2018-Jun-05 23:30N 59°13' E 010°36'611.8
2018-Jun-05 23:00N 59°19' E 010°34'611.8
2018-Jun-05 22:30N 59°25' E 010°32'611.6
2018-Jun-05 22:00N 59°30' E 010°26'5 9.9
2018-Jun-05 21:30N 59°35' E 010°25'4 6.8
2018-Jun-05 20:59N 59°39' E 010°25'611.6
2018-Jun-05 20:30N 59°43' E 010°18'2 4.2
2018-Jun-05 19:59N 59°44' E 010°14'0 0.0
2018-Jun-05 19:28N 59°44' E 010°14'0 0.0
2018-Jun-05 18:58N 59°44' E 010°14'0 0.0
2018-Jun-05 18:28N 59°44' E 010°14'0 0.0
2018-Jun-05 18:00N 59°44' E 010°14'0 0.0
2018-Jun-05 17:28N 59°44' E 010°14'0 0.0
2018-Jun-05 16:58N 59°44' E 010°14'0 0.0
2018-Jun-05 16:28N 59°44' E 010°14'0 0.0
2018-Jun-05 15:55N 59°44' E 010°14'0 0.0
2018-Jun-05 15:28N 59°44' E 010°14'0 0.0
2018-Jun-05 14:58N 59°44' E 010°14'0 0.0
2018-Jun-05 14:28N 59°44' E 010°14'0 0.0
2018-Jun-05 13:58N 59°44' E 010°14'0 0.0
2018-Jun-05 13:28N 59°44' E 010°14'0 0.0
2018-Jun-05 12:58N 59°44' E 010°14'0 0.0
2018-Jun-05 12:28N 59°44' E 010°14'0 0.0
2018-Jun-05 11:55N 59°44' E 010°14'0 0.0
2018-Jun-05 11:28N 59°44' E 010°14'0 0.0
2018-Jun-05 10:58N 59°44' E 010°14'0 0.0
2018-Jun-05 10:28N 59°44' E 010°14'0 0.0
2018-Jun-05 09:58N 59°44' E 010°14'0 0.0
2018-Jun-05 09:28N 59°44' E 010°14'0 0.0
2018-Jun-05 08:58N 59°44' E 010°14'0 0.0
2018-Jun-05 08:28N 59°44' E 010°14'  

Dump ship's entire track history